createdAt,value
2018-04-14T00:00:06.935Z,22.1
2018-04-14T00:00:57.665Z,22.1
2018-04-14T00:01:48.171Z,22.1
2018-04-14T00:02:38.530Z,22.1
2018-04-14T00:03:28.019Z,22.1
2018-04-14T00:04:18.684Z,22.1
2018-04-14T00:05:08.463Z,22.1
2018-04-14T00:05:58.499Z,22.1
2018-04-14T00:06:48.283Z,22.1
2018-04-14T00:07:37.784Z,22.1
2018-04-14T00:08:28.404Z,22.1
2018-04-14T00:09:18.440Z,22.1
2018-04-14T00:10:09.085Z,22.1
2018-04-14T00:10:59.280Z,22.1
2018-04-14T00:11:49.223Z,22
2018-04-14T00:12:38.248Z,22.1
2018-04-14T00:13:28.799Z,22.1
2018-04-14T00:14:18.884Z,22
2018-04-14T00:15:08.361Z,22
2018-04-14T00:15:59.289Z,22
2018-04-14T00:16:49.068Z,22
2018-04-14T00:17:39.124Z,22
2018-04-14T00:18:29.451Z,22.1
2018-04-14T00:19:19.872Z,22.1
2018-04-14T00:20:07.874Z,22
2018-04-14T00:20:59.343Z,22
2018-04-14T00:21:49.707Z,22.1
2018-04-14T00:22:39.781Z,22
2018-04-14T00:23:29.537Z,22
2018-04-14T00:24:19.340Z,22
2018-04-14T00:25:09.708Z,22.1
2018-04-14T00:26:00.023Z,22
2018-04-14T00:26:49.798Z,22
2018-04-14T00:27:39.390Z,22
2018-04-14T00:28:29.410Z,22
2018-04-14T00:29:20.528Z,22.1
2018-04-14T00:30:10.087Z,22.1
2018-04-14T00:31:00.681Z,22
2018-04-14T00:31:50.180Z,22.1
2018-04-14T00:32:40.825Z,22
2018-04-14T00:33:30.300Z,22
2018-04-14T00:34:20.937Z,22
2018-04-14T00:35:10.433Z,22
2018-04-14T00:36:00.231Z,22
2018-04-14T00:36:50.584Z,22
2018-04-14T00:37:40.877Z,22
2018-04-14T00:38:30.984Z,22
2018-04-14T00:39:20.443Z,22
2018-04-14T00:40:11.372Z,22
2018-04-14T00:41:00.636Z,22
2018-04-14T00:41:50.701Z,22
2018-04-14T00:42:41.273Z,22
2018-04-14T00:43:31.050Z,22
2018-04-14T00:44:21.706Z,22
2018-04-14T00:45:11.501Z,21.9
2018-04-14T00:46:01.541Z,21.9
2018-04-14T00:46:51.003Z,22
2018-04-14T00:47:41.365Z,22
2018-04-14T00:48:31.471Z,21.9
2018-04-14T00:49:21.501Z,21.9
2018-04-14T00:50:11.913Z,22
2018-04-14T00:51:01.897Z,21.9
2018-04-14T00:51:52.276Z,21.9
2018-04-14T00:52:41.785Z,22
2018-04-14T00:53:31.831Z,22
2018-04-14T00:54:21.617Z,22
2018-04-14T00:55:11.915Z,22
2018-04-14T00:56:02.326Z,21.9
2018-04-14T00:56:52.077Z,21.9
2018-04-14T00:57:42.769Z,21.9
2018-04-14T00:58:31.637Z,21.9
2018-04-14T00:59:22.565Z,21.9
2018-04-14T01:00:12.620Z,21.9
2018-04-14T01:01:02.959Z,22
2018-04-14T01:01:52.472Z,21.9
2018-04-14T01:02:43.082Z,21.9
2018-04-14T01:03:32.863Z,22
2018-04-14T01:04:22.937Z,21.9
2018-04-14T01:05:12.692Z,21.9
2018-04-14T01:06:02.247Z,21.9
2018-04-14T01:06:53.132Z,21.9
2018-04-14T01:07:43.240Z,21.9
2018-04-14T01:08:32.965Z,21.9
2018-04-14T01:09:22.490Z,21.9
2018-04-14T01:10:13.382Z,21.9
2018-04-14T01:11:02.627Z,21.9
2018-04-14T01:11:52.673Z,22
2018-04-14T01:12:42.998Z,21.9
2018-04-14T01:13:33.118Z,21.9
2018-04-14T01:14:23.705Z,21.9
2018-04-14T01:15:13.183Z,21.9
2018-04-14T01:16:03.027Z,21.9
2018-04-14T01:16:53.393Z,21.9
2018-04-14T01:17:43.970Z,21.9
2018-04-14T01:18:33.184Z,21.9
2018-04-14T01:19:24.078Z,21.9
2018-04-14T01:20:13.817Z,21.9
2018-04-14T01:21:03.950Z,21.9
2018-04-14T01:21:54.255Z,21.9
2018-04-14T01:22:45.067Z,21.9
2018-04-14T01:23:33.563Z,21.9
2018-04-14T01:24:24.725Z,21.9
2018-04-14T01:25:14.789Z,21.9
2018-04-14T01:26:04.319Z,21.9
2018-04-14T01:26:54.125Z,21.9
2018-04-14T01:27:44.209Z,21.9
2018-04-14T01:28:33.968Z,21.9
2018-04-14T01:29:24.259Z,21.9
2018-04-14T01:30:13.474Z,21.9
2018-04-14T01:31:04.445Z,21.9
2018-04-14T01:31:54.486Z,21.9
2018-04-14T01:32:44.232Z,21.9
2018-04-14T01:33:35.465Z,21.9
2018-04-14T01:34:24.954Z,21.9
2018-04-14T01:35:14.145Z,21.9
2018-04-14T01:36:05.116Z,21.9
2018-04-14T01:36:54.902Z,21.9
2018-04-14T01:37:45.023Z,21.9
2018-04-14T01:38:34.661Z,21.9
2018-04-14T01:39:24.467Z,21.9
2018-04-14T01:40:15.976Z,21.9
2018-04-14T01:41:04.614Z,21.9
2018-04-14T01:41:55.811Z,21.9
2018-04-14T01:42:45.346Z,21.9
2018-04-14T01:43:35.643Z,21.9
2018-04-14T01:44:25.687Z,21.9
2018-04-14T01:45:16.328Z,21.9
2018-04-14T01:46:05.575Z,21.9
2018-04-14T01:46:54.763Z,21.9
2018-04-14T01:47:45.666Z,21.9
2018-04-14T01:48:36.281Z,21.9
2018-04-14T01:49:25.059Z,21.9
2018-04-14T01:50:16.162Z,21.9
2018-04-14T01:51:05.386Z,21.9
2018-04-14T01:51:56.589Z,21.9
2018-04-14T01:52:46.639Z,21.9
2018-04-14T01:53:35.859Z,21.9
2018-04-14T01:54:26.188Z,21.9
2018-04-14T01:55:16.811Z,21.9
2018-04-14T01:56:07.223Z,21.9
2018-04-14T01:56:56.444Z,21.9
2018-04-14T01:57:46.158Z,21.8
2018-04-14T01:58:36.781Z,21.8
2018-04-14T01:59:27.200Z,21.8
2018-04-14T02:00:16.661Z,21.8
2018-04-14T02:01:06.751Z,21.9
2018-04-14T02:01:56.771Z,21.9
2018-04-14T02:02:46.822Z,21.8
2018-04-14T02:03:36.879Z,21.8
2018-04-14T02:04:27.262Z,21.9
2018-04-14T02:05:16.759Z,21.9
2018-04-14T02:06:07.678Z,21.9
2018-04-14T02:06:57.436Z,21.9
2018-04-14T02:07:46.893Z,21.8
2018-04-14T02:08:37.272Z,21.9
2018-04-14T02:09:27.065Z,21.9
2018-04-14T02:10:18.012Z,21.8
2018-04-14T02:11:07.174Z,21.9
2018-04-14T02:11:57.744Z,21.9
2018-04-14T02:12:48.150Z,21.9
2018-04-14T02:13:37.646Z,21.9
2018-04-14T02:14:28.263Z,21.9
2018-04-14T02:15:17.247Z,21.8
2018-04-14T02:16:07.848Z,21.8
2018-04-14T02:16:58.480Z,21.8
2018-04-14T02:17:47.073Z,21.8
2018-04-14T02:18:38.657Z,21.8
2018-04-14T02:19:29.044Z,21.9
2018-04-14T02:20:18.150Z,21.9
2018-04-14T02:21:08.248Z,21.9
2018-04-14T02:21:58.798Z,21.8
2018-04-14T02:22:48.315Z,21.8
2018-04-14T02:23:38.991Z,21.9
2018-04-14T02:24:29.085Z,21.8
2018-04-14T02:25:18.252Z,21.8
2018-04-14T02:26:08.868Z,21.8
2018-04-14T02:26:58.947Z,21.8
2018-04-14T02:27:48.705Z,21.8
2018-04-14T02:28:39.031Z,21.8
2018-04-14T02:29:28.863Z,21.8
2018-04-14T02:30:18.964Z,21.8
2018-04-14T02:31:09.828Z,21.8
2018-04-14T02:31:59.319Z,21.8
2018-04-14T02:32:49.387Z,21.8
2018-04-14T02:33:39.471Z,21.8
2018-04-14T02:34:29.293Z,21.8
2018-04-14T02:35:20.165Z,21.8
2018-04-14T02:36:09.971Z,21.8
2018-04-14T02:36:59.745Z,21.8
2018-04-14T02:37:49.534Z,21.8
2018-04-14T02:38:40.464Z,21.8
2018-04-14T02:39:29.915Z,21.8
2018-04-14T02:40:20.323Z,21.8
2018-04-14T02:41:10.082Z,21.8
2018-04-14T02:41:59.537Z,21.8
2018-04-14T02:42:50.416Z,21.8
2018-04-14T02:43:39.395Z,21.8
2018-04-14T02:44:30.070Z,21.8
2018-04-14T02:45:19.788Z,21.8
2018-04-14T02:46:10.147Z,21.8
2018-04-14T02:47:00.236Z,21.8
2018-04-14T02:47:50.869Z,21.8
2018-04-14T02:48:40.090Z,21.8
2018-04-14T02:49:31.279Z,21.8
2018-04-14T02:50:21.091Z,21.8
2018-04-14T02:51:10.262Z,21.8
2018-04-14T02:52:01.117Z,21.8
2018-04-14T02:52:50.929Z,21.8
2018-04-14T02:53:40.430Z,21.8
2018-04-14T02:54:30.850Z,21.8
2018-04-14T02:55:21.379Z,21.8
2018-04-14T02:56:11.256Z,21.8
2018-04-14T02:57:01.286Z,21.8
2018-04-14T02:57:51.554Z,21.8
2018-04-14T02:58:41.102Z,21.8
2018-04-14T02:59:31.149Z,21.8
2018-04-14T03:00:21.775Z,21.8
2018-04-14T03:01:11.511Z,21.8
2018-04-14T03:02:02.214Z,21.8
2018-04-14T03:02:50.836Z,21.8
2018-04-14T03:03:42.042Z,21.8
2018-04-14T03:04:32.404Z,21.8
2018-04-14T03:05:21.853Z,21.8
2018-04-14T03:06:12.208Z,21.8
2018-04-14T03:07:01.666Z,21.8
2018-04-14T03:07:51.228Z,21.8
2018-04-14T03:08:41.571Z,21.8
2018-04-14T03:09:32.254Z,21.8
2018-04-14T03:10:22.812Z,21.8
2018-04-14T03:11:11.746Z,21.8
2018-04-14T03:12:02.055Z,21.8
2018-04-14T03:12:52.800Z,21.8
2018-04-14T03:13:42.526Z,21.8
2018-04-14T03:14:32.880Z,21.8
2018-04-14T03:15:22.921Z,21.8
2018-04-14T03:16:12.721Z,21.8
2018-04-14T03:17:02.708Z,21.8
2018-04-14T03:17:53.180Z,21.8
2018-04-14T03:18:42.575Z,21.8
2018-04-14T03:19:32.910Z,21.8
2018-04-14T03:20:22.697Z,21.8
2018-04-14T03:21:12.777Z,21.8
2018-04-14T03:22:02.280Z,21.7
2018-04-14T03:22:52.375Z,21.7
2018-04-14T03:23:42.979Z,21.8
2018-04-14T03:24:33.350Z,21.8
2018-04-14T03:25:23.772Z,21.8
2018-04-14T03:26:14.002Z,21.8
2018-04-14T03:27:03.525Z,21.7
2018-04-14T03:27:53.817Z,21.7
2018-04-14T03:28:43.918Z,21.8
2018-04-14T03:29:33.694Z,21.7
2018-04-14T03:30:22.917Z,21.7
2018-04-14T03:31:14.321Z,21.7
2018-04-14T03:32:03.374Z,21.7
2018-04-14T03:32:54.227Z,21.7
2018-04-14T03:33:43.976Z,21.7
2018-04-14T03:34:34.061Z,21.7
2018-04-14T03:35:24.133Z,21.7
2018-04-14T03:36:14.241Z,21.7
2018-04-14T03:37:04.776Z,21.7
2018-04-14T03:37:54.298Z,21.7
2018-04-14T03:38:44.381Z,21.7
2018-04-14T03:39:34.624Z,21.7
2018-04-14T03:40:24.229Z,21.7
2018-04-14T03:41:14.595Z,21.6
2018-04-14T03:42:04.655Z,21.7
2018-04-14T03:42:55.202Z,21.7
2018-04-14T03:43:44.205Z,21.7
2018-04-14T03:44:35.131Z,21.6
2018-04-14T03:45:25.164Z,21.7
2018-04-14T03:46:15.577Z,21.6
2018-04-14T03:47:05.794Z,21.6
2018-04-14T03:47:55.126Z,21.6
2018-04-14T03:48:45.410Z,21.7
2018-04-14T03:49:35.243Z,21.7
2018-04-14T03:50:25.327Z,21.7
2018-04-14T03:51:15.040Z,21.6
2018-04-14T03:52:04.836Z,21.6
2018-04-14T03:52:55.477Z,21.6
2018-04-14T03:53:45.498Z,21.6
2018-04-14T03:54:35.612Z,21.6
2018-04-14T03:55:25.918Z,21.6
2018-04-14T03:56:16.325Z,21.6
2018-04-14T03:57:05.480Z,21.7
2018-04-14T03:57:55.841Z,21.6
2018-04-14T03:58:45.915Z,21.6
2018-04-14T03:59:35.947Z,21.6
2018-04-14T04:00:25.983Z,21.6
2018-04-14T04:01:16.095Z,21.6
2018-04-14T04:02:06.167Z,21.6
2018-04-14T04:02:56.727Z,21.6
2018-04-14T04:03:45.997Z,21.6
2018-04-14T04:04:36.892Z,21.6
2018-04-14T04:05:26.688Z,21.6
2018-04-14T04:06:16.174Z,21.6
2018-04-14T04:07:06.204Z,21.6
2018-04-14T04:07:57.130Z,21.6
2018-04-14T04:08:46.732Z,21.6
2018-04-14T04:09:37.261Z,21.6
2018-04-14T04:10:26.491Z,21.6
2018-04-14T04:11:16.819Z,21.6
2018-04-14T04:12:07.160Z,21.6
2018-04-14T04:12:57.526Z,21.6
2018-04-14T04:13:47.594Z,21.6
2018-04-14T04:14:36.844Z,21.6
2018-04-14T04:15:27.154Z,21.6
2018-04-14T04:16:17.855Z,21.6
2018-04-14T04:17:06.444Z,21.6
2018-04-14T04:17:57.376Z,21.6
2018-04-14T04:18:46.859Z,21.6
2018-04-14T04:19:38.090Z,21.6
2018-04-14T04:20:28.076Z,21.6
2018-04-14T04:21:18.168Z,21.6
2018-04-14T04:22:08.211Z,21.6
2018-04-14T04:22:58.320Z,21.6
2018-04-14T04:23:48.083Z,21.6
2018-04-14T04:24:37.528Z,21.6
2018-04-14T04:25:28.228Z,21.6
2018-04-14T04:26:18.531Z,21.6
2018-04-14T04:27:08.597Z,21.6
2018-04-14T04:27:57.837Z,21.6
2018-04-14T04:28:48.157Z,21.6
2018-04-14T04:29:38.814Z,21.6
2018-04-14T04:30:28.274Z,21.6
2018-04-14T04:31:18.625Z,21.6
2018-04-14T04:32:08.146Z,21.6
2018-04-14T04:32:57.676Z,21.6
2018-04-14T04:33:48.795Z,21.6
2018-04-14T04:34:38.618Z,21.6
2018-04-14T04:35:28.931Z,21.6
2018-04-14T05:24:13.352Z,21.7
2018-04-14T05:25:03.578Z,21.8
2018-04-14T05:25:53.100Z,21.8
2018-04-14T05:26:43.396Z,21.8
2018-04-14T05:27:33.752Z,21.8
2018-04-14T05:28:23.805Z,21.8
2018-04-14T05:29:14.121Z,21.7
2018-04-14T05:30:04.242Z,21.7
2018-04-14T05:30:54.038Z,21.7
2018-04-14T05:31:44.026Z,21.7
2018-04-14T05:32:33.558Z,21.7
2018-04-14T05:33:24.167Z,21.7
2018-04-14T05:34:14.518Z,21.8
2018-04-14T05:35:04.360Z,21.7
2018-04-14T05:35:53.504Z,21.7
2018-04-14T05:36:44.425Z,21.7
2018-04-14T05:37:34.897Z,21.7
2018-04-14T05:38:25.134Z,21.7
2018-04-14T05:39:13.487Z,21.7
2018-04-14T05:40:04.715Z,21.8
2018-04-14T05:40:54.480Z,21.7
2018-04-14T05:41:44.550Z,21.7
2018-04-14T05:42:34.592Z,21.7
2018-04-14T05:43:24.975Z,21.8
2018-04-14T05:44:15.511Z,21.7
2018-04-14T05:45:05.045Z,21.7
2018-04-14T05:45:55.107Z,21.7
2018-04-14T05:46:44.596Z,21.7
2018-04-14T05:47:35.257Z,21.7
2018-04-14T05:48:24.769Z,21.7
2018-04-14T05:49:14.866Z,21.8
2018-04-14T05:50:05.748Z,21.7
2018-04-14T05:50:54.996Z,21.8
2018-04-14T05:51:45.589Z,21.8
2018-04-14T05:52:35.694Z,21.7
2018-04-14T05:53:25.198Z,21.7
2018-04-14T05:54:14.404Z,21.8
2018-04-14T05:55:04.994Z,21.8
2018-04-14T05:55:56.153Z,21.7
2018-04-14T05:56:46.526Z,21.8
2018-04-14T05:57:35.204Z,21.8
2018-04-14T05:58:26.661Z,21.8
2018-04-14T05:59:16.153Z,21.8
2018-04-14T06:00:06.317Z,21.7
2018-04-14T06:00:55.424Z,21.7
2018-04-14T06:01:46.063Z,21.7
2018-04-14T06:02:36.421Z,21.8
2018-04-14T06:03:26.728Z,21.8
2018-04-14T06:04:15.395Z,21.8
2018-04-14T06:05:05.735Z,21.8
2018-04-14T06:05:56.092Z,21.8
2018-04-14T06:06:46.740Z,21.7
2018-04-14T06:07:36.232Z,21.8
2018-04-14T06:08:27.397Z,21.8
2018-04-14T06:09:17.075Z,21.8
2018-04-14T06:10:06.122Z,21.8
2018-04-14T06:10:57.030Z,21.8
2018-04-14T06:11:46.545Z,21.7
2018-04-14T06:12:36.588Z,21.8
2018-04-14T06:13:27.219Z,21.7
2018-04-14T06:14:17.556Z,21.8
2018-04-14T06:15:07.468Z,21.8
2018-04-14T06:15:57.965Z,21.8
2018-04-14T06:16:46.950Z,21.8
2018-04-14T06:17:38.078Z,21.8
2018-04-14T06:18:27.864Z,21.8
2018-04-14T06:19:17.377Z,21.8
2018-04-14T06:20:08.486Z,21.8
2018-04-14T06:20:57.770Z,21.8
2018-04-14T06:21:48.096Z,21.8
2018-04-14T06:22:38.177Z,21.8
2018-04-14T06:23:28.489Z,21.8
2018-04-14T06:24:17.477Z,21.8
2018-04-14T06:25:08.136Z,21.8
2018-04-14T06:25:58.441Z,21.8
2018-04-14T06:26:48.527Z,21.8
2018-04-14T06:27:38.553Z,21.8
2018-04-14T06:28:28.863Z,21.8
2018-04-14T06:29:18.468Z,21.8
2018-04-14T06:30:09.016Z,21.8
2018-04-14T06:30:59.108Z,21.8
2018-04-14T06:31:48.691Z,21.8
2018-04-14T06:32:39.313Z,21.8
2018-04-14T06:33:28.710Z,21.8
2018-04-14T06:34:18.780Z,21.8
2018-04-14T06:35:08.294Z,21.8
2018-04-14T06:35:58.965Z,21.8
2018-04-14T06:36:49.316Z,21.8
2018-04-14T06:37:39.078Z,21.8
2018-04-14T06:38:28.901Z,21.8
2018-04-14T06:39:19.488Z,21.8
2018-04-14T06:40:08.996Z,21.8
2018-04-14T06:40:59.110Z,21.8
2018-04-14T06:41:48.858Z,21.8
2018-04-14T06:42:39.591Z,21.8
2018-04-14T06:43:29.740Z,21.8
2018-04-14T06:44:19.016Z,21.8
2018-04-14T06:45:09.410Z,21.8
2018-04-14T06:46:00.238Z,21.8
2018-04-14T06:46:50.298Z,21.8
2018-04-14T06:47:39.520Z,21.8
2018-04-14T06:48:29.932Z,21.8
2018-04-14T06:49:19.427Z,21.9
2018-04-14T06:50:09.136Z,21.9
2018-04-14T06:50:59.009Z,22
2018-04-14T06:51:50.125Z,22.1
2018-04-14T06:52:40.732Z,22.2
2018-04-14T06:53:30.564Z,22.3
2018-04-14T06:54:19.474Z,22.3
2018-04-14T06:55:09.610Z,22.4
2018-04-14T06:56:01.029Z,22.4
2018-04-14T06:56:49.989Z,22.4
2018-04-14T06:57:40.555Z,22.5
2018-04-14T06:58:31.202Z,22.5
2018-04-14T06:59:21.341Z,22.5
2018-04-14T07:00:10.192Z,22.6
2018-04-14T07:01:01.114Z,22.6
2018-04-14T07:01:51.435Z,22.6
2018-04-14T07:02:40.709Z,22.6
2018-04-14T07:03:30.999Z,22.6
2018-04-14T07:04:20.896Z,22.6
2018-04-14T07:05:11.191Z,22.6
2018-04-14T07:06:00.983Z,22.6
2018-04-14T07:06:51.302Z,22.6
2018-04-14T07:07:41.129Z,22.6
2018-04-14T07:08:31.407Z,22.6
2018-04-14T07:09:21.759Z,22.7
2018-04-14T07:10:11.502Z,22.7
2018-04-14T07:11:02.139Z,22.7
2018-04-14T07:11:51.637Z,22.7
2018-04-14T07:12:42.249Z,22.6
2018-04-14T07:13:31.527Z,22.6
2018-04-14T07:14:21.594Z,22.7
2018-04-14T07:15:11.149Z,22.6
2018-04-14T07:16:02.004Z,22.6
2018-04-14T07:16:52.076Z,22.6
2018-04-14T07:17:42.197Z,22.6
2018-04-14T07:18:32.213Z,22.6
2018-04-14T07:19:21.981Z,22.6
2018-04-14T07:20:12.075Z,22.7
2018-04-14T07:21:01.493Z,22.8
2018-04-14T07:21:51.964Z,22.8
2018-04-14T07:22:42.544Z,22.8
2018-04-14T07:23:32.926Z,22.8
2018-04-14T07:24:22.621Z,22.8
2018-04-14T07:25:11.641Z,22.8
2018-04-14T07:26:01.953Z,22.8
2018-04-14T07:26:53.406Z,22.8
2018-04-14T07:27:42.096Z,22.8
2018-04-14T07:28:33.021Z,22.8
2018-04-14T07:29:23.237Z,22.8
2018-04-14T07:30:13.071Z,22.8
2018-04-14T07:31:03.658Z,22.8
2018-04-14T07:31:53.468Z,22.8
2018-04-14T07:32:42.970Z,22.8
2018-04-14T07:33:33.630Z,22.8
2018-04-14T07:34:24.199Z,22.8
2018-04-14T07:35:13.038Z,22.8
2018-04-14T07:36:02.173Z,22.8
2018-04-14T07:36:53.454Z,22.8
2018-04-14T07:37:43.435Z,22.8
2018-04-14T07:38:32.898Z,22.8
2018-04-14T07:39:22.057Z,22.9
2018-04-14T07:40:13.356Z,22.8
2018-04-14T07:41:02.452Z,22.9
2018-04-14T07:41:52.969Z,22.8
2018-04-14T07:42:42.623Z,22.8
2018-04-14T07:43:33.322Z,22.9
2018-04-14T07:44:23.369Z,22.9
2018-04-14T07:45:14.329Z,22.9
2018-04-14T07:46:03.875Z,22.9
2018-04-14T07:46:54.129Z,22.9
2018-04-14T07:47:43.878Z,22.9
2018-04-14T07:48:34.480Z,22.9
2018-04-14T07:49:24.557Z,22.9
2018-04-14T07:50:14.341Z,22.9
2018-04-14T07:51:04.958Z,22.9
2018-04-14T07:51:54.751Z,22.9
2018-04-14T07:52:45.382Z,22.9
2018-04-14T07:53:35.147Z,22.9
2018-04-14T07:54:24.936Z,22.9
2018-04-14T07:55:15.276Z,22.9
2018-04-14T07:56:05.366Z,22.8
2018-04-14T07:56:55.725Z,22.8
2018-04-14T07:57:45.781Z,22.9
2018-04-14T07:58:35.271Z,22.8
2018-04-14T07:59:25.328Z,22.8
2018-04-14T08:00:15.232Z,22.9
2018-04-14T08:01:05.233Z,22.9
2018-04-14T08:01:55.257Z,22.9
2018-04-14T08:02:45.641Z,22.9
2018-04-14T08:03:35.590Z,22.9
2018-04-14T08:04:26.008Z,22.9
2018-04-14T08:05:15.446Z,22.9
2018-04-14T08:06:05.868Z,22.9
2018-04-14T08:06:55.372Z,22.9
2018-04-14T08:07:46.548Z,22.9
2018-04-14T08:08:36.038Z,22.9
2018-04-14T08:09:26.153Z,22.9
2018-04-14T08:10:16.231Z,22.9
2018-04-14T08:11:05.683Z,22.9
2018-04-14T08:11:56.282Z,22.9
2018-04-14T08:12:46.060Z,22.9
2018-04-14T08:13:36.720Z,22.9
2018-04-14T08:14:26.488Z,22.9
2018-04-14T08:15:15.983Z,22.9
2018-04-14T08:16:06.930Z,22.9
2018-04-14T08:16:56.104Z,22.9
2018-04-14T08:17:47.337Z,22.8
2018-04-14T08:18:36.840Z,22.8
2018-04-14T08:19:26.611Z,22.8
2018-04-14T08:20:17.176Z,22.9
2018-04-14T08:21:06.987Z,22.9
2018-04-14T08:21:56.815Z,22.9
2018-04-14T08:22:47.404Z,22.9
2018-04-14T08:23:36.899Z,22.9
2018-04-14T08:24:26.408Z,22.9
2018-04-14T08:25:17.657Z,22.8
2018-04-14T08:26:06.861Z,22.8
2018-04-14T08:26:57.159Z,22.9
2018-04-14T08:27:47.487Z,22.8
2018-04-14T08:28:37.254Z,22.8
2018-04-14T08:29:27.938Z,22.8
2018-04-14T08:30:18.214Z,22.8
2018-04-14T08:31:07.800Z,22.9
2018-04-14T08:31:56.447Z,22.9
2018-04-14T08:32:48.146Z,22.9
2018-04-14T08:33:37.789Z,22.9
2018-04-14T08:34:27.708Z,22.9
2018-04-14T08:35:18.746Z,22.9
2018-04-14T08:36:08.384Z,22.8
2018-04-14T08:36:56.803Z,22.9
2018-04-14T08:37:47.698Z,22.9
2018-04-14T08:38:38.615Z,22.9
2018-04-14T08:39:27.950Z,22.9
2018-04-14T08:40:17.865Z,22.9
2018-04-14T08:41:08.253Z,22.8
2018-04-14T08:41:58.000Z,22.8
2018-04-14T08:42:48.897Z,22.9
2018-04-14T08:43:38.425Z,22.9
2018-04-14T08:44:28.847Z,22.8
2018-04-14T08:45:18.600Z,22.8
2018-04-14T08:46:07.860Z,22.8
2018-04-14T08:46:58.682Z,22.8
2018-04-14T08:47:49.290Z,22.8
2018-04-14T08:48:38.817Z,22.8
2018-04-14T08:49:29.716Z,22.8
2018-04-14T08:50:19.239Z,22.8
2018-04-14T08:51:09.304Z,22.8
2018-04-14T08:51:59.371Z,22.8
2018-04-14T08:52:49.411Z,22.8
2018-04-14T08:53:40.062Z,22.8
2018-04-14T08:54:29.278Z,22.8
2018-04-14T08:55:19.920Z,22.8
2018-04-14T08:56:09.663Z,22.8
2018-04-14T08:56:59.413Z,22.8
2018-04-14T08:57:49.796Z,22.8
2018-04-14T08:58:39.830Z,22.8
2018-04-14T08:59:29.465Z,22.8
2018-04-14T09:00:20.610Z,22.8
2018-04-14T09:01:10.059Z,22.8
2018-04-14T09:02:00.544Z,22.8
2018-04-14T09:02:50.182Z,22.8
2018-04-14T09:03:40.265Z,22.8
2018-04-14T09:04:29.339Z,22.8
2018-04-14T09:05:19.343Z,22.8
2018-04-14T09:06:10.707Z,22.8
2018-04-14T09:07:00.486Z,22.8
2018-04-14T09:07:50.824Z,22.8
2018-04-14T09:08:40.067Z,22.8
2018-04-14T09:09:30.406Z,22.8
2018-04-14T09:10:20.186Z,22.8
2018-04-14T09:11:10.845Z,22.8
2018-04-14T09:12:00.908Z,22.8
2018-04-14T09:12:50.621Z,22.8
2018-04-14T09:13:40.966Z,22.8
2018-04-14T09:14:31.365Z,22.8
2018-04-14T09:15:21.752Z,22.8
2018-04-14T09:16:12.133Z,22.8
2018-04-14T09:17:01.282Z,22.8
2018-04-14T09:17:51.622Z,22.8
2018-04-14T09:18:41.101Z,22.8
2018-04-14T09:19:30.152Z,22.8
2018-04-14T09:20:21.759Z,22.8
2018-04-14T09:21:11.019Z,22.8
2018-04-14T09:22:01.645Z,22.8
2018-04-14T09:22:50.454Z,22.8
2018-04-14T09:23:41.532Z,22.8
2018-04-14T09:24:32.123Z,22.8
2018-04-14T09:25:21.866Z,22.8
2018-04-14T09:26:12.261Z,22.8
2018-04-14T09:27:02.346Z,22.8
2018-04-14T09:27:52.102Z,22.8
2018-04-14T09:28:42.234Z,22.9
2018-04-14T09:29:31.968Z,22.8
2018-04-14T09:30:22.571Z,22.8
2018-04-14T09:31:12.427Z,22.8
2018-04-14T09:32:02.194Z,22.9
2018-04-14T09:32:52.949Z,22.9
2018-04-14T09:33:42.301Z,22.9
2018-04-14T09:34:33.213Z,22.9
2018-04-14T09:35:23.296Z,22.9
2018-04-14T09:36:13.321Z,22.9
2018-04-14T09:37:03.611Z,22.9
2018-04-14T09:37:53.222Z,22.9
2018-04-14T09:38:42.708Z,22.9
2018-04-14T09:39:32.751Z,22.9
2018-04-14T09:40:23.120Z,22.9
2018-04-14T09:41:13.431Z,22.9
2018-04-14T09:42:03.321Z,22.9
2018-04-14T09:42:53.251Z,22.9
2018-04-14T09:43:42.245Z,22.9
2018-04-14T09:44:32.897Z,22.9
2018-04-14T09:45:23.224Z,22.9
2018-04-14T09:46:13.254Z,22.9
2018-04-14T09:47:04.200Z,22.9
2018-04-14T09:47:53.953Z,22.9
2018-04-14T09:48:42.917Z,22.9
2018-04-14T09:49:33.788Z,22.9
2018-04-14T09:50:24.170Z,22.9
2018-04-14T09:51:13.450Z,22.9
2018-04-14T09:52:03.155Z,22.9
2018-04-14T09:52:54.070Z,22.9
2018-04-14T09:53:43.537Z,22.9
2018-04-14T09:54:31.929Z,22.9
2018-04-14T09:55:23.993Z,22.9
2018-04-14T09:56:14.358Z,22.9
2018-04-14T09:57:04.124Z,22.9
2018-04-14T09:57:55.039Z,22.9
2018-04-14T09:58:45.066Z,22.9
2018-04-14T09:59:34.329Z,22.9
2018-04-14T10:00:24.362Z,22.9
2018-04-14T10:01:15.044Z,22.9
2018-04-14T10:02:05.072Z,22.9
2018-04-14T10:02:55.130Z,22.9
2018-04-14T10:03:44.622Z,22.9
2018-04-14T10:04:34.701Z,22.9
2018-04-14T10:05:24.496Z,22.9
2018-04-14T10:06:15.089Z,22.9
2018-04-14T10:07:05.439Z,22.9
2018-04-14T10:07:54.786Z,22.9
2018-04-14T10:08:45.023Z,22.9
2018-04-14T10:09:35.658Z,22.9
2018-04-14T10:10:26.104Z,22.9
2018-04-14T10:11:14.951Z,22.9
2018-04-14T10:12:06.137Z,22.9
2018-04-14T10:12:55.633Z,22.9
2018-04-14T10:13:45.696Z,22.9
2018-04-14T10:14:35.253Z,22.9
2018-04-14T10:15:24.948Z,22.9
2018-04-14T10:16:16.684Z,22.9
2018-04-14T10:17:05.682Z,23
2018-04-14T10:17:56.018Z,22.9
2018-04-14T10:18:46.095Z,23
2018-04-14T10:19:35.305Z,22.9
2018-04-14T10:20:26.176Z,22.9
2018-04-14T10:21:16.565Z,23
2018-04-14T10:22:06.587Z,23
2018-04-14T10:22:55.543Z,23
2018-04-14T10:23:46.714Z,23
2018-04-14T10:24:36.809Z,23
2018-04-14T10:25:26.865Z,23
2018-04-14T10:26:16.967Z,23
2018-04-14T10:27:07.836Z,23
2018-04-14T10:27:56.219Z,23
2018-04-14T10:28:46.907Z,23
2018-04-14T10:29:36.633Z,23
2018-04-14T10:30:27.658Z,23
2018-04-14T10:31:17.645Z,23
2018-04-14T10:32:06.839Z,23
2018-04-14T10:32:56.713Z,23
2018-04-14T10:33:47.540Z,23
2018-04-14T10:34:37.876Z,23.1
2018-04-14T10:35:27.379Z,23.1
2018-04-14T10:36:17.753Z,23.1
2018-04-14T10:37:07.775Z,23
2018-04-14T10:38:00.408Z,23
2018-04-14T10:38:47.339Z,23
2018-04-14T10:39:37.806Z,23
2018-04-14T10:40:27.738Z,23.1
2018-04-14T10:41:17.528Z,23.1
2018-04-14T10:42:07.916Z,23.1
2018-04-14T10:42:57.368Z,23.1
2018-04-14T10:43:48.623Z,23.1
2018-04-14T10:44:38.139Z,23.1
2018-04-14T10:45:28.198Z,23.1
2018-04-14T10:46:18.793Z,23.1
2018-04-14T10:47:08.048Z,23.1
2018-04-14T10:47:58.141Z,23.1
2018-04-14T10:48:48.106Z,23.1
2018-04-14T10:49:38.787Z,23.1
2018-04-14T10:50:28.531Z,23.1
2018-04-14T10:51:17.571Z,23.1
2018-04-14T10:52:08.961Z,23.1
2018-04-14T10:52:58.188Z,23.1
2018-04-14T10:53:47.963Z,23.1
2018-04-14T10:54:37.721Z,23.1
2018-04-14T10:55:28.967Z,23.1
2018-04-14T10:56:19.002Z,23.1
2018-04-14T10:57:09.045Z,23.1
2018-04-14T10:57:58.841Z,23.1
2018-04-14T10:58:48.904Z,23.2
2018-04-14T10:59:39.557Z,23.1
2018-04-14T11:00:29.298Z,23.1
2018-04-14T11:01:18.900Z,23.1
2018-04-14T11:02:09.748Z,23.1
2018-04-14T11:02:59.333Z,23.2
2018-04-14T11:03:49.767Z,23.2
2018-04-14T11:04:40.183Z,23.2
2018-04-14T11:05:29.951Z,23.2
2018-04-14T11:06:18.892Z,23.2
2018-04-14T11:07:09.786Z,23.2
2018-04-14T11:08:00.444Z,23.2
2018-04-14T11:08:50.531Z,23.2
2018-04-14T11:09:38.632Z,23.2
2018-04-14T11:10:30.408Z,23.2
2018-04-14T11:11:20.179Z,23.2
2018-04-14T11:12:10.242Z,23.2
2018-04-14T11:13:00.278Z,23.2
2018-04-14T11:13:50.059Z,23.3
2018-04-14T11:14:40.192Z,23.3
2018-04-14T11:15:29.632Z,23.3
2018-04-14T11:16:20.522Z,23.2
2018-04-14T11:17:10.615Z,23.2
2018-04-14T11:18:00.993Z,23.2
2018-04-14T11:18:51.033Z,23.2
2018-04-14T11:19:40.259Z,23.2
2018-04-14T11:20:31.316Z,23.2
2018-04-14T11:21:19.852Z,23.3
2018-04-14T11:22:11.021Z,23.3
2018-04-14T11:23:01.333Z,23.3
2018-04-14T11:23:51.108Z,23.3
2018-04-14T11:24:41.220Z,23.3
2018-04-14T11:25:31.269Z,23.3
2018-04-14T11:26:20.469Z,23.2
2018-04-14T11:27:11.961Z,23.3
2018-04-14T11:28:02.016Z,23.2
2018-04-14T11:28:51.277Z,23.3
2018-04-14T11:29:41.870Z,23.3
2018-04-14T11:30:32.274Z,23.3
2018-04-14T11:31:22.162Z,23.3
2018-04-14T11:32:11.881Z,23.3
2018-04-14T11:33:01.276Z,23.3
2018-04-14T11:33:52.505Z,23.3
2018-04-14T11:34:41.994Z,23.3
2018-04-14T11:35:31.566Z,23.3
2018-04-14T11:36:21.832Z,23.3
2018-04-14T11:37:11.696Z,23.4
2018-04-14T11:38:02.339Z,23.4
2018-04-14T11:38:52.579Z,23.4
2018-04-14T11:39:57.600Z,23.4
2018-04-14T11:40:32.478Z,23.4
2018-04-14T11:41:22.798Z,23.4
2018-04-14T11:42:12.833Z,23.4
2018-04-14T11:43:02.160Z,23.4
2018-04-14T11:43:53.208Z,23.4
2018-04-14T11:44:43.040Z,23.4
2018-04-14T11:45:32.262Z,23.4
2018-04-14T11:46:23.198Z,23.4
2018-04-14T11:47:11.832Z,23.4
2018-04-14T11:48:03.294Z,23.4
2018-04-14T11:48:53.676Z,23.4
2018-04-14T11:49:43.465Z,23.5
2018-04-14T11:50:33.207Z,23.5
2018-04-14T11:51:23.005Z,23.5
2018-04-14T11:52:13.617Z,23.6
2018-04-14T11:53:03.347Z,23.6
2018-04-14T11:53:53.214Z,23.6
2018-04-14T11:54:43.525Z,23.6
2018-04-14T11:55:33.873Z,23.6
2018-04-14T11:56:24.257Z,23.6
2018-04-14T11:57:13.787Z,23.6